createdAt,value
2022-08-22T00:00:11.000Z,19.3
2022-08-22T00:01:16.000Z,19.3
2022-08-22T00:02:22.000Z,19.9
2022-08-22T00:03:28.000Z,19.6
2022-08-22T00:04:34.000Z,20.3
2022-08-22T00:05:40.000Z,19
2022-08-22T00:06:47.000Z,19.6
2022-08-22T00:07:53.000Z,19.9
2022-08-22T00:08:59.000Z,19.6
2022-08-22T00:10:05.000Z,20.3
2022-08-22T00:11:11.000Z,20.3
2022-08-22T00:12:17.000Z,19.9
2022-08-22T00:13:23.000Z,19.9
2022-08-22T00:14:29.000Z,19.6
2022-08-22T00:15:34.000Z,20.3
2022-08-22T00:16:40.000Z,19.3
2022-08-22T00:17:46.000Z,19.9
2022-08-22T00:18:52.000Z,19.6
2022-08-22T00:19:58.000Z,19.3
2022-08-22T00:21:05.000Z,19.9
2022-08-22T00:22:11.000Z,20.3
2022-08-22T00:23:17.000Z,19.9
2022-08-22T00:24:23.000Z,19.6
2022-08-22T00:25:29.000Z,20.6
2022-08-22T00:26:35.000Z,19.3
2022-08-22T00:27:41.000Z,19
2022-08-22T00:28:47.000Z,19
2022-08-22T00:30:58.000Z,19.9
2022-08-22T00:32:04.000Z,19.6
2022-08-22T00:33:10.000Z,20.3
2022-08-22T00:34:17.000Z,20.9
2022-08-22T00:35:23.000Z,19.9
2022-08-22T00:36:29.000Z,20.3
2022-08-22T00:37:35.000Z,19.6
2022-08-22T00:38:41.000Z,19.9
2022-08-22T00:39:47.000Z,19.3
2022-08-22T00:40:53.000Z,19.9
2022-08-22T00:41:59.000Z,20.3
2022-08-22T00:43:05.000Z,19.6
2022-08-22T00:44:10.000Z,19.6
2022-08-22T00:45:16.000Z,19
2022-08-22T00:46:22.000Z,20.6
2022-08-22T00:47:28.000Z,19.6
2022-08-22T00:48:34.000Z,19.9
2022-08-22T00:49:41.000Z,19.3
2022-08-22T00:50:47.000Z,19.3
2022-08-22T00:51:53.000Z,19.6
2022-08-22T00:52:59.000Z,20.3
2022-08-22T00:54:05.000Z,19.9
2022-08-22T00:55:11.000Z,19.6
2022-08-22T00:56:17.000Z,19.3
2022-08-22T00:57:23.000Z,19.3
2022-08-22T00:58:28.000Z,19.6
2022-08-22T00:59:34.000Z,19
2022-08-22T01:00:40.000Z,19.9
2022-08-22T01:01:46.000Z,19.3
2022-08-22T01:02:52.000Z,19.3
2022-08-22T01:03:58.000Z,19.9
2022-08-22T01:05:05.000Z,19.6
2022-08-22T01:06:11.000Z,19.9
2022-08-22T01:07:17.000Z,19.9
2022-08-22T01:08:23.000Z,19.3
2022-08-22T01:09:29.000Z,19.6
2022-08-22T01:10:35.000Z,19.3
2022-08-22T01:11:41.000Z,19.9
2022-08-22T01:12:46.000Z,19
2022-08-22T01:13:52.000Z,18.6
2022-08-22T01:14:58.000Z,19.6
2022-08-22T01:16:04.000Z,19.6
2022-08-22T01:17:10.000Z,19.9
2022-08-22T01:18:16.000Z,19.6
2022-08-22T01:19:23.000Z,19.9
2022-08-22T01:20:29.000Z,19.9
2022-08-22T01:21:35.000Z,19.9
2022-08-22T01:22:41.000Z,19.3
2022-08-22T01:23:47.000Z,19.3
2022-08-22T01:25:59.000Z,19.9
2022-08-22T01:27:04.000Z,19.6
2022-08-22T01:28:10.000Z,19.6
2022-08-22T01:29:16.000Z,20.3
2022-08-22T01:30:22.000Z,20.3
2022-08-22T01:31:28.000Z,19.3
2022-08-22T01:32:35.000Z,20.3
2022-08-22T01:33:41.000Z,20.3
2022-08-22T01:34:47.000Z,19.6
2022-08-22T01:35:53.000Z,20.3
2022-08-22T01:36:59.000Z,19.9
2022-08-22T01:38:05.000Z,19.6
2022-08-22T01:39:11.000Z,19.6
2022-08-22T01:40:17.000Z,19.6
2022-08-22T01:41:22.000Z,19.6
2022-08-22T01:42:28.000Z,19.9
2022-08-22T01:43:34.000Z,19.9
2022-08-22T01:44:39.000Z,20.3
2022-08-22T01:45:44.000Z,19.3
2022-08-22T01:46:50.000Z,19.9
2022-08-22T01:47:57.000Z,19.9
2022-08-22T01:49:03.000Z,19.6
2022-08-22T01:50:08.000Z,19.3
2022-08-22T01:51:13.000Z,20.3
2022-08-22T01:52:19.000Z,19.3
2022-08-22T01:53:25.000Z,19.3
2022-08-22T01:54:31.000Z,19.9
2022-08-22T01:55:37.000Z,20.3
2022-08-22T01:56:43.000Z,19.6
2022-08-22T01:57:49.000Z,19.3
2022-08-22T01:58:55.000Z,19.6
2022-08-22T02:00:02.000Z,19
2022-08-22T02:01:08.000Z,19.9
2022-08-22T02:02:14.000Z,19.6
2022-08-22T02:03:20.000Z,19.6
2022-08-22T02:04:26.000Z,19.3
2022-08-22T02:05:31.000Z,20.3
2022-08-22T02:06:37.000Z,19
2022-08-22T02:07:43.000Z,19.9
2022-08-22T02:08:49.000Z,19
2022-08-22T02:09:55.000Z,19.3
2022-08-22T02:11:01.000Z,19.3
2022-08-22T02:12:07.000Z,18.6
2022-08-22T02:13:12.000Z,19.6
2022-08-22T02:14:18.000Z,19.9
2022-08-22T02:15:24.000Z,19.6
2022-08-22T02:16:29.000Z,19.6
2022-08-22T02:17:35.000Z,18.6
2022-08-22T02:18:40.000Z,19
2022-08-22T02:20:52.000Z,19.3
2022-08-22T02:21:58.000Z,18.3
2022-08-22T02:23:04.000Z,20.6
2022-08-22T02:24:10.000Z,19.3
2022-08-22T02:25:16.000Z,19.9
2022-08-22T02:26:22.000Z,19.9
2022-08-22T02:27:29.000Z,19.6
2022-08-22T02:28:35.000Z,19.6
2022-08-22T02:29:41.000Z,19.9
2022-08-22T02:30:47.000Z,19.6
2022-08-22T02:31:53.000Z,19.3
2022-08-22T02:32:58.000Z,19.3
2022-08-22T02:34:04.000Z,19.9
2022-08-22T02:35:10.000Z,18.6
2022-08-22T02:36:16.000Z,19.6
2022-08-22T02:37:22.000Z,19.6
2022-08-22T02:38:28.000Z,20.3
2022-08-22T02:39:34.000Z,18.6
2022-08-22T02:40:40.000Z,18.6
2022-08-22T02:41:47.000Z,20.3
2022-08-22T02:42:53.000Z,19.6
2022-08-22T02:43:59.000Z,19.6
2022-08-22T02:45:05.000Z,19.3
2022-08-22T02:46:11.000Z,19.3
2022-08-22T02:47:16.000Z,19.6
2022-08-22T02:48:22.000Z,18.6
2022-08-22T02:49:28.000Z,19
2022-08-22T02:50:34.000Z,20.6
2022-08-22T02:51:40.000Z,19.3
2022-08-22T02:53:52.000Z,19
2022-08-22T02:54:58.000Z,19
2022-08-22T02:56:04.000Z,19.3
2022-08-22T02:57:11.000Z,19.6
2022-08-22T02:58:17.000Z,19.3
2022-08-22T02:59:23.000Z,18.6
2022-08-22T03:00:29.000Z,19
2022-08-22T03:01:34.000Z,19.6
2022-08-22T03:02:40.000Z,19.3
2022-08-22T03:03:46.000Z,19.6
2022-08-22T03:04:52.000Z,19.6
2022-08-22T03:05:58.000Z,19
2022-08-22T03:07:03.000Z,19.3
2022-08-22T03:08:08.000Z,19.6
2022-08-22T03:09:13.000Z,19.6
2022-08-22T03:10:18.000Z,19.3
2022-08-22T03:11:25.000Z,19.6
2022-08-22T03:12:31.000Z,19.6
2022-08-22T03:13:37.000Z,19.6
2022-08-22T03:14:43.000Z,18.6
2022-08-22T03:15:49.000Z,19.6
2022-08-22T03:16:55.000Z,18.6
2022-08-22T03:18:01.000Z,19
2022-08-22T03:19:07.000Z,18.3
2022-08-22T03:20:13.000Z,19.3
2022-08-22T03:21:19.000Z,19
2022-08-22T03:22:25.000Z,19
2022-08-22T03:23:31.000Z,20.3
2022-08-22T03:24:36.000Z,18.6
2022-08-22T03:25:43.000Z,19.9
2022-08-22T03:26:49.000Z,19.3
2022-08-22T03:27:55.000Z,18.6
2022-08-22T03:29:01.000Z,19.9
2022-08-22T03:30:07.000Z,19
2022-08-22T03:31:13.000Z,19.3
2022-08-22T03:32:19.000Z,18.6
2022-08-22T03:33:25.000Z,19.3
2022-08-22T03:34:31.000Z,19.3
2022-08-22T03:35:37.000Z,19.6
2022-08-22T03:36:43.000Z,19
2022-08-22T03:37:49.000Z,19.3
2022-08-22T03:38:54.000Z,19.9
2022-08-22T03:40:00.000Z,19.6
2022-08-22T03:41:07.000Z,19
2022-08-22T03:42:12.000Z,19.3
2022-08-22T03:43:18.000Z,19
2022-08-22T03:44:24.000Z,18.6
2022-08-22T03:45:30.000Z,19.3
2022-08-22T03:46:36.000Z,19.3
2022-08-22T03:48:48.000Z,19
2022-08-22T03:49:54.000Z,19.9
2022-08-22T03:51:00.000Z,18.3
2022-08-22T03:52:06.000Z,19.6
2022-08-22T03:53:12.000Z,19
2022-08-22T03:54:18.000Z,19.3
2022-08-22T03:55:24.000Z,19.3
2022-08-22T03:56:31.000Z,19.6
2022-08-22T03:57:36.000Z,18.6
2022-08-22T03:58:42.000Z,19.3
2022-08-22T03:59:48.000Z,20.3
2022-08-22T04:00:54.000Z,19.6
2022-08-22T04:02:00.000Z,18.3
2022-08-22T04:03:06.000Z,19
2022-08-22T04:04:12.000Z,19.3
2022-08-22T04:05:18.000Z,19
2022-08-22T04:06:24.000Z,18.6
2022-08-22T04:07:30.000Z,18
2022-08-22T04:08:37.000Z,18.3
2022-08-22T04:09:43.000Z,19.3
2022-08-22T04:10:49.000Z,19
2022-08-22T04:11:54.000Z,19.3
2022-08-22T04:13:00.000Z,18.6
2022-08-22T04:14:06.000Z,18.6
2022-08-22T04:15:12.000Z,19.9
2022-08-22T04:16:18.000Z,18.3
2022-08-22T04:17:24.000Z,19.3
2022-08-22T04:18:30.000Z,20.3
2022-08-22T04:19:36.000Z,19.6
2022-08-22T04:21:48.000Z,19.3
2022-08-22T04:22:54.000Z,19.6
2022-08-22T04:24:01.000Z,19
2022-08-22T04:25:07.000Z,19.6
2022-08-22T04:26:12.000Z,19.3
2022-08-22T04:27:18.000Z,19.3
2022-08-22T04:28:24.000Z,19
2022-08-22T04:29:30.000Z,19
2022-08-22T04:30:36.000Z,19
2022-08-22T04:31:41.000Z,19.9
2022-08-22T04:32:46.000Z,18.3
2022-08-22T04:33:52.000Z,19
2022-08-22T04:34:57.000Z,19
2022-08-22T04:36:03.000Z,19
2022-08-22T04:37:09.000Z,19.3
2022-08-22T04:38:15.000Z,19
2022-08-22T04:39:21.000Z,19
2022-08-22T04:40:27.000Z,19.6
2022-08-22T04:41:33.000Z,18.6
2022-08-22T04:43:45.000Z,18.6
2022-08-22T04:44:51.000Z,19.6
2022-08-22T04:45:57.000Z,18.3
2022-08-22T04:47:03.000Z,18.6
2022-08-22T04:48:09.000Z,19
2022-08-22T04:49:15.000Z,19.9
2022-08-22T04:50:21.000Z,19.9
2022-08-22T04:51:27.000Z,18.6
2022-08-22T04:52:33.000Z,19
2022-08-22T04:53:39.000Z,19.3
2022-08-22T04:54:45.000Z,19.3
2022-08-22T04:55:51.000Z,18
2022-08-22T04:56:57.000Z,19.6
2022-08-22T04:58:03.000Z,18.6
2022-08-22T04:59:08.000Z,18.3
2022-08-22T05:00:13.000Z,19
2022-08-22T05:01:18.000Z,19.3
2022-08-22T05:02:24.000Z,18.6
2022-08-22T05:03:30.000Z,19.6
2022-08-22T05:04:36.000Z,19
2022-08-22T05:05:42.000Z,19.6
2022-08-22T05:06:48.000Z,19
2022-08-22T05:09:00.000Z,19.3
2022-08-22T05:10:06.000Z,19
2022-08-22T05:11:12.000Z,19
2022-08-22T05:12:18.000Z,19
2022-08-22T05:13:24.000Z,19
2022-08-22T05:14:30.000Z,19.6
2022-08-22T05:16:42.000Z,18.6
2022-08-22T05:17:49.000Z,18.6
2022-08-22T05:18:55.000Z,18
2022-08-22T05:20:00.000Z,18.6
2022-08-22T05:21:05.000Z,19.3
2022-08-22T05:22:11.000Z,19
2022-08-22T05:23:17.000Z,18.3
2022-08-22T05:24:23.000Z,18.6
2022-08-22T05:25:29.000Z,18.3
2022-08-22T05:26:35.000Z,18.6
2022-08-22T05:27:41.000Z,18.3
2022-08-22T05:28:47.000Z,19.6
2022-08-22T05:29:53.000Z,19
2022-08-22T05:30:59.000Z,17.7
2022-08-22T05:32:05.000Z,19.3
2022-08-22T05:33:10.000Z,19.3
2022-08-22T05:34:16.000Z,18.6
2022-08-22T05:35:22.000Z,18.6
2022-08-22T05:36:28.000Z,18.6
2022-08-22T05:38:40.000Z,19
2022-08-22T05:39:46.000Z,19.3
2022-08-22T05:40:52.000Z,18.3
2022-08-22T05:41:58.000Z,19
2022-08-22T05:43:05.000Z,18.6
2022-08-22T05:44:11.000Z,19.3
2022-08-22T05:45:17.000Z,18
2022-08-22T05:46:23.000Z,18.6
2022-08-22T05:47:28.000Z,19
2022-08-22T05:48:34.000Z,19
2022-08-22T05:49:40.000Z,18.3
2022-08-22T05:50:46.000Z,19.3
2022-08-22T05:51:52.000Z,17.7
2022-08-22T05:52:58.000Z,19
2022-08-22T05:54:04.000Z,17.7
2022-08-22T05:55:10.000Z,18.6
2022-08-22T05:56:16.000Z,19
2022-08-22T05:57:22.000Z,19
2022-08-22T05:58:29.000Z,18.6
2022-08-22T05:59:35.000Z,19.3
2022-08-22T06:00:41.000Z,19.3
2022-08-22T06:01:46.000Z,18.6
2022-08-22T06:02:52.000Z,19
2022-08-22T06:03:58.000Z,19
2022-08-22T06:05:04.000Z,19.6
2022-08-22T06:06:10.000Z,18.6
2022-08-22T06:07:16.000Z,18.6
2022-08-22T06:08:21.000Z,18.3
2022-08-22T06:09:26.000Z,19.3
2022-08-22T06:11:37.000Z,18
2022-08-22T06:12:43.000Z,18
2022-08-22T06:13:48.000Z,18.3
2022-08-22T06:14:54.000Z,18.3
2022-08-22T06:16:00.000Z,18.6
2022-08-22T06:17:06.000Z,19
2022-08-22T06:18:12.000Z,18
2022-08-22T06:19:18.000Z,18.3
2022-08-22T06:20:24.000Z,18
2022-08-22T06:21:30.000Z,19.6
2022-08-22T06:22:36.000Z,18
2022-08-22T06:23:42.000Z,19
2022-08-22T06:24:48.000Z,18.6
2022-08-22T06:25:55.000Z,19
2022-08-22T06:27:01.000Z,18.6
2022-08-22T06:28:06.000Z,18.6
2022-08-22T06:29:12.000Z,18.3
2022-08-22T06:30:18.000Z,18.6
2022-08-22T06:31:24.000Z,18
2022-08-22T06:32:30.000Z,18
2022-08-22T06:33:36.000Z,18.6
2022-08-22T06:34:42.000Z,19.6
2022-08-22T06:35:48.000Z,19.3
2022-08-22T06:36:54.000Z,18.3
2022-08-22T06:38:00.000Z,18.3
2022-08-22T06:39:06.000Z,18.3
2022-08-22T06:40:12.000Z,19
2022-08-22T06:41:19.000Z,18.3
2022-08-22T06:42:24.000Z,18.6
2022-08-22T06:44:36.000Z,19.3
2022-08-22T06:45:42.000Z,18.6
2022-08-22T06:46:48.000Z,19
2022-08-22T06:47:54.000Z,18.3
2022-08-22T06:49:00.000Z,19
2022-08-22T06:50:06.000Z,18.6
2022-08-22T06:51:12.000Z,19
2022-08-22T06:52:18.000Z,19
2022-08-22T06:53:24.000Z,18.6
2022-08-22T06:55:36.000Z,19
2022-08-22T06:56:42.000Z,18.6
2022-08-22T06:57:48.000Z,18.6
2022-08-22T06:58:54.000Z,18.6
2022-08-22T07:00:00.000Z,19
2022-08-22T07:01:06.000Z,18.6
2022-08-22T07:02:12.000Z,19
2022-08-22T07:03:18.000Z,18
2022-08-22T07:04:24.000Z,18.6
2022-08-22T07:05:30.000Z,19.3
2022-08-22T07:06:36.000Z,19
2022-08-22T07:07:42.000Z,18
2022-08-22T07:08:49.000Z,18.3
2022-08-22T07:09:55.000Z,18.6
2022-08-22T07:11:00.000Z,19
2022-08-22T07:12:06.000Z,19.3
2022-08-22T07:13:12.000Z,17.7
2022-08-22T07:14:18.000Z,19
2022-08-22T07:15:24.000Z,18.6
2022-08-22T07:16:30.000Z,19.3
2022-08-22T07:17:36.000Z,18.6
2022-08-22T07:18:42.000Z,18
2022-08-22T07:19:48.000Z,18.6
2022-08-22T07:20:54.000Z,18
2022-08-22T07:22:00.000Z,19
2022-08-22T07:23:05.000Z,19
2022-08-22T07:24:12.000Z,18.3
2022-08-22T07:25:18.000Z,19
2022-08-22T07:26:24.000Z,19
2022-08-22T07:27:30.000Z,19
2022-08-22T07:28:36.000Z,19.3
2022-08-22T07:29:42.000Z,19.3
2022-08-22T07:30:48.000Z,19.3
2022-08-22T07:31:54.000Z,18.6
2022-08-22T07:33:00.000Z,18
2022-08-22T07:34:06.000Z,18.3
2022-08-22T07:35:12.000Z,19
2022-08-22T07:36:18.000Z,18.3
2022-08-22T07:37:23.000Z,18.6
2022-08-22T07:39:36.000Z,19
2022-08-22T07:40:42.000Z,18.3
2022-08-22T07:41:48.000Z,19
2022-08-22T07:42:54.000Z,18.3
2022-08-22T07:44:00.000Z,19
2022-08-22T07:45:06.000Z,18.6
2022-08-22T07:46:12.000Z,18.6
2022-08-22T07:47:18.000Z,18.3
2022-08-22T07:48:24.000Z,19
2022-08-22T07:49:30.000Z,18
2022-08-22T07:50:36.000Z,19
2022-08-22T07:51:41.000Z,18.6
2022-08-22T07:52:47.000Z,18.6
2022-08-22T07:53:54.000Z,17.7
2022-08-22T07:55:00.000Z,18.3
2022-08-22T07:56:06.000Z,18.6
2022-08-22T07:57:12.000Z,18.6
2022-08-22T07:58:18.000Z,17.7
2022-08-22T07:59:24.000Z,18.3
2022-08-22T08:00:30.000Z,19
2022-08-22T08:01:36.000Z,19.3
2022-08-22T08:02:42.000Z,18.3
2022-08-22T08:03:48.000Z,18.6
2022-08-22T08:04:54.000Z,17.7
2022-08-22T08:06:00.000Z,19
2022-08-22T08:07:06.000Z,18.6
2022-08-22T08:08:12.000Z,19.3
2022-08-22T08:09:18.000Z,18.3
2022-08-22T08:10:23.000Z,18.6
2022-08-22T08:12:34.000Z,17.4
2022-08-22T08:13:39.000Z,18.6
2022-08-22T08:14:44.000Z,18.6
2022-08-22T08:15:50.000Z,19.3
2022-08-22T08:16:56.000Z,19.3
2022-08-22T08:18:02.000Z,18.3
2022-08-22T08:19:09.000Z,18
2022-08-22T08:20:15.000Z,19
2022-08-22T08:21:21.000Z,17.7
2022-08-22T08:22:27.000Z,19
2022-08-22T08:23:33.000Z,18.3
2022-08-22T08:24:39.000Z,19.3
2022-08-22T08:25:45.000Z,18.6
2022-08-22T08:26:51.000Z,19
2022-08-22T08:27:57.000Z,18.3
2022-08-22T08:29:03.000Z,18.6
2022-08-22T08:30:09.000Z,18.6
2022-08-22T08:31:16.000Z,19
2022-08-22T08:32:22.000Z,18
2022-08-22T08:33:28.000Z,19.3
2022-08-22T08:34:34.000Z,18
2022-08-22T08:35:40.000Z,18.3
2022-08-22T08:36:46.000Z,19
2022-08-22T08:37:52.000Z,18.6
2022-08-22T08:38:58.000Z,19
2022-08-22T08:40:04.000Z,18.6
2022-08-22T08:41:10.000Z,19
2022-08-22T08:42:16.000Z,19
2022-08-22T08:43:21.000Z,18.3
2022-08-22T08:45:34.000Z,18.3
2022-08-22T08:46:40.000Z,19
2022-08-22T08:47:46.000Z,18.6
2022-08-22T08:48:52.000Z,19.3
2022-08-22T08:49:58.000Z,18.3
2022-08-22T08:51:04.000Z,17.7
2022-08-22T08:52:10.000Z,18.6
2022-08-22T08:53:16.000Z,18.6
2022-08-22T08:54:22.000Z,18
2022-08-22T08:55:28.000Z,18.6
2022-08-22T08:56:34.000Z,18.6
2022-08-22T08:57:39.000Z,18.3
2022-08-22T08:58:45.000Z,18.6
2022-08-22T08:59:51.000Z,19
2022-08-22T09:00:58.000Z,19
2022-08-22T09:02:04.000Z,17.7
2022-08-22T09:03:10.000Z,18.6
2022-08-22T09:04:16.000Z,18
2022-08-22T09:05:22.000Z,18.3
2022-08-22T09:06:28.000Z,18.6
2022-08-22T09:07:34.000Z,19.3
2022-08-22T09:08:40.000Z,19
2022-08-22T09:09:46.000Z,18.3
2022-08-22T09:10:51.000Z,18.3
2022-08-22T09:11:57.000Z,18.3
2022-08-22T09:13:02.000Z,19
2022-08-22T09:14:08.000Z,19
2022-08-22T09:15:14.000Z,18.3
2022-08-22T09:16:20.000Z,18
2022-08-22T09:17:26.000Z,18.3
2022-08-22T09:18:32.000Z,19
2022-08-22T09:19:38.000Z,18.6
2022-08-22T09:20:44.000Z,19
2022-08-22T09:21:50.000Z,18.3
2022-08-22T09:22:56.000Z,19.3
2022-08-22T09:24:02.000Z,19.9
2022-08-22T09:25:08.000Z,18.3
2022-08-22T09:26:14.000Z,17.7
2022-08-22T09:27:20.000Z,19
2022-08-22T09:28:26.000Z,18.3
2022-08-22T09:29:32.000Z,18.3
2022-08-22T09:30:38.000Z,19
2022-08-22T09:31:44.000Z,19
2022-08-22T09:32:50.000Z,19.3
2022-08-22T09:33:56.000Z,19
2022-08-22T09:35:02.000Z,19.3
2022-08-22T09:36:07.000Z,18.6
2022-08-22T09:37:12.000Z,18.3
2022-08-22T09:38:18.000Z,18.3
2022-08-22T09:40:30.000Z,18.3
2022-08-22T09:41:35.000Z,18.6
2022-08-22T09:42:40.000Z,19.3
2022-08-22T09:43:46.000Z,18.3
2022-08-22T09:44:52.000Z,19
2022-08-22T09:45:58.000Z,18.6
2022-08-22T09:47:04.000Z,18.6
2022-08-22T09:48:10.000Z,18
2022-08-22T09:49:16.000Z,18.3
2022-08-22T09:50:22.000Z,19.3
2022-08-22T09:51:28.000Z,18.6
2022-08-22T09:52:34.000Z,19.3
2022-08-22T09:53:40.000Z,19.3
2022-08-22T09:54:47.000Z,18.6
2022-08-22T09:55:53.000Z,18.6
2022-08-22T09:56:58.000Z,19
2022-08-22T09:58:04.000Z,18.6
2022-08-22T09:59:10.000Z,18.6
2022-08-22T10:00:16.000Z,18
2022-08-22T10:01:22.000Z,19
2022-08-22T10:02:28.000Z,18.6
2022-08-22T10:03:34.000Z,18.6
2022-08-22T10:04:40.000Z,19.3
2022-08-22T10:05:46.000Z,17.4
2022-08-22T10:06:51.000Z,18.6
2022-08-22T10:07:58.000Z,19
2022-08-22T10:09:03.000Z,18.3
2022-08-22T10:10:08.000Z,19.9
2022-08-22T10:11:14.000Z,19.6
2022-08-22T10:12:20.000Z,19
2022-08-22T10:13:26.000Z,18.3
2022-08-22T10:14:32.000Z,19
2022-08-22T10:15:38.000Z,19
2022-08-22T10:16:44.000Z,19
2022-08-22T10:17:50.000Z,19
2022-08-22T10:18:56.000Z,18.6
2022-08-22T10:21:08.000Z,19
2022-08-22T10:22:14.000Z,18.6
2022-08-22T10:23:21.000Z,19
2022-08-22T10:24:26.000Z,18
2022-08-22T10:25:32.000Z,18.6
2022-08-22T10:26:38.000Z,19.9
2022-08-22T10:27:44.000Z,19.9
2022-08-22T10:28:50.000Z,19.6
2022-08-22T10:29:56.000Z,19.3
2022-08-22T10:31:02.000Z,18
2022-08-22T10:32:08.000Z,19
2022-08-22T10:33:14.000Z,20.6
2022-08-22T10:35:26.000Z,19.6
2022-08-22T10:36:32.000Z,18.6
2022-08-22T10:37:38.000Z,18.6
2022-08-22T10:38:44.000Z,19.3
2022-08-22T10:39:50.000Z,18.3
2022-08-22T10:40:56.000Z,19
2022-08-22T10:42:02.000Z,19
2022-08-22T10:43:08.000Z,18.6
2022-08-22T10:44:14.000Z,19
2022-08-22T10:45:20.000Z,18
2022-08-22T10:46:26.000Z,19.3
2022-08-22T10:47:32.000Z,19
2022-08-22T10:48:38.000Z,19.3
2022-08-22T10:49:44.000Z,18.6
2022-08-22T10:50:50.000Z,17.7
2022-08-22T10:51:56.000Z,19
2022-08-22T10:53:02.000Z,19.6
2022-08-22T10:54:08.000Z,19.3
2022-08-22T10:55:14.000Z,18.6
2022-08-22T10:57:26.000Z,19
2022-08-22T10:58:32.000Z,19
2022-08-22T10:59:38.000Z,18.6
2022-08-22T11:00:44.000Z,19
2022-08-22T11:01:50.000Z,18.6
2022-08-22T11:02:56.000Z,19
2022-08-22T11:04:01.000Z,19.9
2022-08-22T11:05:07.000Z,18.6
2022-08-22T11:06:14.000Z,18.6
2022-08-22T11:07:20.000Z,18.3
2022-08-22T11:08:26.000Z,19.3
2022-08-22T11:09:32.000Z,18.6
2022-08-22T11:10:38.000Z,19
2022-08-22T11:11:44.000Z,19.3
2022-08-22T11:12:50.000Z,19.6
2022-08-22T11:13:56.000Z,19
2022-08-22T11:15:02.000Z,18.6
2022-08-22T11:16:08.000Z,19.3
2022-08-22T11:17:14.000Z,18.3
2022-08-22T11:18:19.000Z,19.6
2022-08-22T11:19:25.000Z,19.3
2022-08-22T11:20:32.000Z,18.3
2022-08-22T11:21:38.000Z,19.3
2022-08-22T11:22:44.000Z,18.3
2022-08-22T11:23:50.000Z,19.3
2022-08-22T11:24:56.000Z,19.3
2022-08-22T11:26:02.000Z,18.6
2022-08-22T11:27:08.000Z,19
2022-08-22T11:28:14.000Z,18.6
2022-08-22T11:29:20.000Z,18
2022-08-22T11:30:26.000Z,18.3
2022-08-22T11:31:32.000Z,19.3
2022-08-22T11:32:37.000Z,19.6
2022-08-22T11:33:43.000Z,19.3
2022-08-22T11:34:49.000Z,19
2022-08-22T11:35:56.000Z,19.3
2022-08-22T11:37:02.000Z,19.6
2022-08-22T11:38:08.000Z,19
2022-08-22T11:39:14.000Z,19
2022-08-22T11:41:26.000Z,18.6
2022-08-22T11:42:32.000Z,19.6
2022-08-22T11:43:38.000Z,18.6
2022-08-22T11:44:44.000Z,19.6
2022-08-22T11:45:50.000Z,18.6
2022-08-22T11:46:55.000Z,19
2022-08-22T11:48:01.000Z,19
2022-08-22T11:49:07.000Z,19.3
2022-08-22T11:50:13.000Z,19.3
2022-08-22T11:51:20.000Z,18.6
2022-08-22T11:52:26.000Z,20.3
2022-08-22T11:53:32.000Z,19.6
2022-08-22T11:54:38.000Z,19.3
2022-08-22T11:55:44.000Z,19.6
2022-08-22T11:56:50.000Z,20.6
2022-08-22T11:57:56.000Z,18.6
2022-08-22T11:59:02.000Z,19.9
2022-08-22T12:00:08.000Z,19.6
2022-08-22T12:01:13.000Z,19.3
2022-08-22T12:03:26.000Z,19.3
2022-08-22T12:04:32.000Z,19
2022-08-22T12:05:38.000Z,18.6
2022-08-22T12:06:44.000Z,18.6
2022-08-22T12:07:50.000Z,19.3
2022-08-22T12:08:56.000Z,19.9
2022-08-22T12:10:02.000Z,19.3
2022-08-22T12:11:08.000Z,19.9
2022-08-22T12:12:13.000Z,19.6
2022-08-22T12:13:18.000Z,19.3
2022-08-22T12:14:24.000Z,19.3
2022-08-22T12:15:30.000Z,19.6
2022-08-22T12:16:35.000Z,19.6
2022-08-22T12:17:41.000Z,19.6
2022-08-22T12:18:47.000Z,19.6
2022-08-22T12:19:53.000Z,18.6
2022-08-22T12:20:59.000Z,19.6
2022-08-22T12:25:23.000Z,19.3
2022-08-22T12:27:35.000Z,20.3
2022-08-22T12:28:41.000Z,19.3
2022-08-22T12:29:47.000Z,19.9
2022-08-22T12:30:54.000Z,19.3
2022-08-22T12:33:05.000Z,19.6
2022-08-22T12:34:10.000Z,19.9
2022-08-22T12:35:15.000Z,19.9
2022-08-22T12:36:21.000Z,20.6
2022-08-22T12:37:27.000Z,19.6
2022-08-22T12:39:39.000Z,19.3
2022-08-22T12:40:45.000Z,20.3
2022-08-22T12:41:51.000Z,19.6
2022-08-22T12:42:57.000Z,20.3
2022-08-22T12:44:03.000Z,19.3
2022-08-22T12:45:10.000Z,20.6
2022-08-22T12:47:22.000Z,19.6
2022-08-22T12:48:28.000Z,20.3
2022-08-22T12:49:34.000Z,19.9
2022-08-22T12:50:39.000Z,19.3
2022-08-22T12:51:45.000Z,19.9
2022-08-22T12:52:51.000Z,19.3
2022-08-22T12:53:57.000Z,19.6
2022-08-22T12:55:03.000Z,19.3
2022-08-22T12:56:09.000Z,19.6
2022-08-22T12:57:15.000Z,19.6
2022-08-22T12:58:22.000Z,19.3
2022-08-22T12:59:28.000Z,19.3
2022-08-22T13:00:34.000Z,19.9
2022-08-22T13:01:40.000Z,20.9
2022-08-22T13:02:45.000Z,20.6
2022-08-22T13:03:50.000Z,20.3
2022-08-22T13:04:56.000Z,19.9
2022-08-22T13:06:02.000Z,20.3
2022-08-22T13:07:08.000Z,20.3
2022-08-22T13:08:14.000Z,19.9
2022-08-22T13:09:20.000Z,19.9
2022-08-22T13:10:26.000Z,20.3
2022-08-22T13:11:33.000Z,20.9
2022-08-22T13:12:39.000Z,19.6
2022-08-22T13:13:45.000Z,20.3
2022-08-22T13:14:50.000Z,20.3
2022-08-22T13:15:55.000Z,20.6
2022-08-22T13:17:01.000Z,20.3
2022-08-22T13:18:07.000Z,20.3
2022-08-22T13:19:13.000Z,19.3
2022-08-22T13:20:19.000Z,19.9
2022-08-22T13:21:25.000Z,20.3
2022-08-22T13:22:31.000Z,19.9
2022-08-22T13:23:37.000Z,19.9
2022-08-22T13:24:43.000Z,19.9
2022-08-22T13:25:49.000Z,20.9
2022-08-22T13:26:56.000Z,20.6
2022-08-22T13:28:02.000Z,20.3
2022-08-22T13:29:08.000Z,19.6
2022-08-22T13:30:13.000Z,20.6
2022-08-22T13:31:19.000Z,19.6
2022-08-22T13:32:25.000Z,21.2
2022-08-22T13:33:31.000Z,21.9
2022-08-22T13:34:37.000Z,20.6
2022-08-22T13:35:43.000Z,20.6
2022-08-22T13:36:49.000Z,20.3
2022-08-22T13:37:55.000Z,20.6
2022-08-22T13:39:02.000Z,20.6
2022-08-22T13:40:08.000Z,20.6
2022-08-22T13:42:20.000Z,20.9
2022-08-22T13:43:26.000Z,20.6
2022-08-22T13:44:31.000Z,20.3
2022-08-22T13:45:37.000Z,19.6
2022-08-22T13:46:43.000Z,20.9
2022-08-22T13:47:49.000Z,20.9
2022-08-22T13:48:54.000Z,20.6
2022-08-22T13:49:59.000Z,20.6
2022-08-22T13:51:04.000Z,20.3
2022-08-22T13:53:16.000Z,20.6
2022-08-22T13:54:22.000Z,21.2
2022-08-22T13:55:28.000Z,21.2
2022-08-22T13:56:34.000Z,20.9
2022-08-22T13:57:40.000Z,21.2
2022-08-22T13:58:46.000Z,20.9
2022-08-22T13:59:52.000Z,21.2
2022-08-22T14:00:58.000Z,20.6
2022-08-22T14:02:04.000Z,21.2
2022-08-22T14:04:17.000Z,21.5
2022-08-22T14:05:23.000Z,20.3
2022-08-22T14:06:28.000Z,20.9
2022-08-22T14:07:34.000Z,20.6
2022-08-22T14:08:40.000Z,20.6
2022-08-22T14:09:46.000Z,20.9
2022-08-22T14:10:52.000Z,21.5
2022-08-22T14:11:58.000Z,19.9
2022-08-22T14:13:04.000Z,20.3
2022-08-22T14:14:10.000Z,21.2
2022-08-22T14:15:16.000Z,21.5
2022-08-22T14:16:22.000Z,20.6
2022-08-22T14:17:28.000Z,21.5
2022-08-22T14:18:34.000Z,21.2
2022-08-22T14:19:41.000Z,21.9
2022-08-22T14:20:46.000Z,19.9
2022-08-22T14:21:52.000Z,20.6
2022-08-22T14:22:58.000Z,20.6
2022-08-22T14:24:04.000Z,21.5
2022-08-22T14:25:10.000Z,21.5
2022-08-22T14:26:16.000Z,21.5
2022-08-22T14:27:22.000Z,20.9
2022-08-22T14:28:28.000Z,21.2
2022-08-22T14:29:34.000Z,21.2
2022-08-22T14:30:40.000Z,20.9
2022-08-22T14:31:46.000Z,20.6
2022-08-22T14:33:58.000Z,20.3
2022-08-22T14:35:05.000Z,21.5
2022-08-22T14:36:10.000Z,20.9
2022-08-22T14:37:16.000Z,21.2
2022-08-22T14:38:22.000Z,20.6
2022-08-22T14:39:28.000Z,20.9
2022-08-22T14:40:34.000Z,20.3
2022-08-22T14:41:40.000Z,22.5
2022-08-22T14:42:46.000Z,20.9
2022-08-22T14:43:52.000Z,20.9
2022-08-22T14:44:57.000Z,21.5
2022-08-22T14:46:03.000Z,20.9
2022-08-22T14:48:16.000Z,21.5
2022-08-22T14:49:22.000Z,21.9
2022-08-22T14:50:28.000Z,21.5
2022-08-22T14:51:34.000Z,21.9
2022-08-22T14:52:40.000Z,21.2
2022-08-22T14:53:46.000Z,20.9
2022-08-22T14:54:51.000Z,21.2
2022-08-22T14:55:56.000Z,21.5
2022-08-22T14:57:01.000Z,21.5
2022-08-22T14:59:12.000Z,20.6
2022-08-22T15:00:18.000Z,21.5
2022-08-22T15:01:24.000Z,22.2
2022-08-22T15:02:31.000Z,21.5
2022-08-22T15:03:37.000Z,21.5
2022-08-22T15:04:43.000Z,22.5
2022-08-22T15:05:49.000Z,21.9
2022-08-22T15:06:55.000Z,21.9
2022-08-22T15:08:01.000Z,21.9
2022-08-22T15:09:07.000Z,21.2
2022-08-22T15:10:13.000Z,21.2
2022-08-22T15:11:19.000Z,20.9
2022-08-22T15:12:24.000Z,21.9
2022-08-22T15:13:30.000Z,21.5
2022-08-22T15:14:36.000Z,21.5
2022-08-22T15:15:42.000Z,21.2
2022-08-22T15:16:48.000Z,20.9
2022-08-22T15:17:55.000Z,21.9
2022-08-22T15:19:01.000Z,20.9
2022-08-22T15:20:07.000Z,21.2
2022-08-22T15:21:13.000Z,20.9
2022-08-22T15:22:19.000Z,20.9
2022-08-22T15:23:25.000Z,21.2
2022-08-22T15:24:31.000Z,21.9
2022-08-22T15:25:37.000Z,21.9
2022-08-22T15:26:43.000Z,21.5
2022-08-22T15:27:48.000Z,21.9